ROYN(METAR)
10/16 18:00
METAR ROYN 160900Z AUTO 03020KT 9999 FEW025 26/21 Q1016 RMK A3001=
戻る
トップページへ戻る
IMOC Co,.Ltd.